LGKV/KVA METAR and TAF weather

Enter ICAO airport designator
Station Type Date Time Source
LGKV METAR 2019/04/20 20:20 UTC NOAA

LGKV 202020Z VRB04KT 9999 FEW025 08/05 Q1027


Station Type Date Time Source
LGKV Decoded METAR 2019/04/20 20:20 UTC NOAA

Chrysoupoli Airport , Greece (LGKV) 40-59N 024-36E 5M
Apr 20, 2019 - 04:20 PM EDT / 2019.04.20 2020 UTC
Wind: Variable at 5 MPH (4 KT):0
Visibility: greater than 7 mile(s):0
Sky conditions: mostly clear
Temperature: 46 F (8 C)
Dew Point: 41 F (5 C)
Relative Humidity: 81%
Pressure (altimeter): 30.33 in. Hg (1027 hPa)
ob: LGKV 202020Z VRB04KT 9999 FEW025 08/05 Q1027
cycle: 20

Station Type Date Time Source
LGKV TAF 2019/04/20 18:13 UTC NOAA

TAF LGKV 201700Z 2018/2118 VRB03KT 9999 FEW025
BECMG 2110/2112 22010KT

Example: see airport list